Time;durP1;ratioP1;P1;durP2;ratioP2;P2;SDS_P1;SDS_P2;PMS_P1;PMS_P2;Temp;Humidity;BMP_temperature;BMP_pressure;BME280_temperature;BME280_humidity;BME280_pressure;Samples;Min_cycle;Max_cycle;Signal;HPM_P1;HPM_P2
2022/04/19 00:00:56;;;;;;;4.90;3.10;;;;;15.30;101399.00;;;;5067962;28;20200;-80
2022/04/19 00:03:24;;;;;;;4.07;3.30;;;;;15.30;101400.00;;;;5057318;28;20593;-80
2022/04/19 00:05:51;;;;;;;5.72;3.63;;;;;15.30;101395.00;;;;5057026;28;20207;-80
2022/04/19 00:08:18;;;;;;;4.63;3.63;;;;;15.20;101387.00;;;;5054882;28;20205;-80
2022/04/19 00:10:46;;;;;;;4.70;3.70;;;;;15.20;101394.00;;;;5066380;28;20206;-80
2022/04/19 00:13:16;;;;;;;4.03;3.38;;;;;15.20;101385.00;;;;5060341;28;21009;-80
2022/04/19 00:15:44;;;;;;;6.00;3.95;;;;;15.20;101386.00;;;;5051942;28;20740;-80
2022/04/19 00:18:13;;;;;;;5.57;4.57;;;;;15.20;101393.00;;;;5062229;28;20206;-80
2022/04/19 00:20:42;;;;;;;4.35;3.95;;;;;15.20;101375.00;;;;5065661;28;20199;-81
2022/04/19 00:23:12;;;;;;;5.18;4.53;;;;;15.20;101383.00;;;;5060622;28;20269;-80
2022/04/19 00:25:40;;;;;;;6.18;4.45;;;;;15.20;101385.00;;;;5054227;28;20281;-80
2022/04/19 00:28:08;;;;;;;4.90;3.95;;;;;15.20;101388.00;;;;5066582;28;20693;-81
2022/04/19 00:30:35;;;;;;;7.15;4.78;;;;;15.20;101382.00;;;;5063992;28;20218;-80
2022/04/19 00:33:02;;;;;;;6.70;5.32;;;;;15.20;101375.00;;;;5053300;28;20204;-80
2022/04/19 00:35:31;;;;;;;5.40;4.90;;;;;15.10;101384.00;;;;5063423;28;20692;-80
2022/04/19 00:37:59;;;;;;;6.13;4.90;;;;;15.20;101378.00;;;;5067123;28;20217;-80
2022/04/19 00:40:26;;;;;;;5.53;4.78;;;;;15.20;101376.00;;;;5066171;28;20218;-80
2022/04/19 00:42:54;;;;;;;5.20;4.38;;;;;15.20;101378.00;;;;5058864;28;20219;-80
2022/04/19 00:45:23;;;;;;;5.38;4.57;;;;;15.20;101375.00;;;;5067695;28;20282;-80
2022/04/19 00:47:51;;;;;;;5.55;4.68;;;;;15.20;101373.00;;;;5051709;28;20201;-80
2022/04/19 00:50:18;;;;;;;5.85;4.75;;;;;15.20;101369.00;;;;5057338;28;20572;-80
2022/04/19 00:52:48;;;;;;;5.15;4.35;;;;;15.10;101376.00;;;;5062586;28;20210;-80
2022/04/19 00:55:15;;;;;;;6.35;5.28;;;;;15.10;101369.00;;;;5060047;28;20201;-80
2022/04/19 00:57:45;;;;;;;7.20;4.85;;;;;15.10;101368.00;;;;5067065;28;20207;-80
2022/04/19 01:00:13;;;;;;;5.00;4.50;;;;;15.10;101372.00;;;;5065678;28;20294;-80
2022/04/19 01:02:41;;;;;;;5.57;4.82;;;;;15.10;101374.00;;;;5060044;28;20643;-80
2022/04/19 01:05:09;;;;;;;5.50;4.68;;;;;15.10;101371.00;;;;5059513;28;20206;-80
2022/04/19 01:07:38;;;;;;;7.05;5.18;;;;;15.10;101369.00;;;;5063329;28;20198;-79
2022/04/19 01:10:08;;;;;;;6.20;5.05;;;;;15.10;101366.00;;;;5063752;28;20191;-80
2022/04/19 01:15:20;;;;;;;5.60;4.22;;;;;15.00;101363.00;;;;5065537;28;20221;-80
2022/04/19 01:17:48;;;;;;;5.90;4.38;;;;;15.00;101366.00;;;;5062736;28;20214;-80
2022/04/19 01:20:15;;;;;;;5.45;4.45;;;;;15.00;101362.00;;;;5056401;28;20203;-80
2022/04/19 01:22:49;;;;;;;5.80;4.63;;;;;15.00;101349.00;;;;5056404;28;20689;-79
2022/04/19 01:25:18;;;;;;;6.03;4.50;;;;;15.00;101352.00;;;;5056980;28;20273;-80
2022/04/19 01:27:46;;;;;;;5.32;4.60;;;;;14.90;101357.00;;;;5054362;28;20195;-80
2022/04/19 01:30:13;;;;;;;6.60;4.10;;;;;14.90;101361.00;;;;5064031;28;20223;-80
2022/04/19 01:32:41;;;;;;;7.60;4.55;;;;;14.90;101360.00;;;;5056281;28;20756;-80
2022/04/19 01:35:11;;;;;;;7.90;5.10;;;;;14.90;101355.00;;;;5055488;28;20249;-80
2022/04/19 01:37:42;;;;;;;5.55;4.80;;;;;14.90;101357.00;;;;5055797;28;20239;-80
2022/04/19 01:40:18;;;;;;;7.47;4.80;;;;;14.80;101351.00;;;;5063629;28;20198;-80
2022/04/19 01:42:47;;;;;;;5.63;4.50;;;;;14.80;101349.00;;;;5051494;28;20219;-80
2022/04/19 01:45:15;;;;;;;5.25;4.47;;;;;14.80;101355.00;;;;5060904;28;20196;-80
2022/04/19 01:47:43;;;;;;;5.13;3.75;;;;;14.80;101357.00;;;;5050191;28;20956;-80
2022/04/19 01:50:13;;;;;;;8.25;4.47;;;;;14.70;101357.00;;;;5048805;28;20196;-80
2022/04/19 01:52:41;;;;;;;6.75;4.80;;;;;14.70;101352.00;;;;5066346;28;20210;-80
2022/04/19 01:55:13;;;;;;;5.55;4.28;;;;;14.70;101352.00;;;;5052757;28;20204;-80
2022/04/19 01:57:41;;;;;;;6.28;4.18;;;;;14.70;101347.00;;;;5062650;28;20203;-80
2022/04/19 02:00:09;;;;;;;4.40;3.92;;;;;14.60;101347.00;;;;5064435;28;20217;-80
2022/04/19 02:02:37;;;;;;;5.50;4.45;;;;;14.60;101348.00;;;;5065058;28;20258;-80
2022/04/19 02:05:06;;;;;;;4.25;3.85;;;;;14.60;101345.00;;;;5058179;28;20207;-80
2022/04/19 02:07:33;;;;;;;5.55;3.90;;;;;14.60;101347.00;;;;5062775;28;20199;-80
2022/04/19 02:10:01;;;;;;;4.70;4.20;;;;;14.50;101344.00;;;;5054781;28;20244;-80
2022/04/19 02:12:31;;;;;;;4.95;4.22;;;;;14.50;101352.00;;;;5064926;28;20205;-80
2022/04/19 02:14:58;;;;;;;6.35;4.38;;;;;14.50;101341.00;;;;5068218;28;20579;-80
2022/04/19 02:17:26;;;;;;;7.95;4.63;;;;;14.50;101344.00;;;;5061326;28;20191;-80
2022/04/19 02:19:59;;;;;;;6.45;4.78;;;;;14.40;101337.00;;;;5062754;28;20206;-80
2022/04/19 02:22:27;;;;;;;5.18;4.25;;;;;14.40;101340.00;;;;5048699;28;20273;-80
2022/04/19 02:24:55;;;;;;;8.18;4.70;;;;;14.40;101334.00;;;;5048963;28;20219;-79
2022/04/19 02:27:22;;;;;;;5.13;4.03;;;;;14.40;101333.00;;;;5050727;28;20198;-80
2022/04/19 02:29:51;;;;;;;7.28;4.88;;;;;14.30;101335.00;;;;5064528;28;20243;-80
2022/04/19 02:32:18;;;;;;;6.88;4.00;;;;;14.30;101337.00;;;;5069480;28;20210;-81
2022/04/19 02:34:45;;;;;;;5.85;4.45;;;;;14.30;101331.00;;;;5063647;28;20192;-80
2022/04/19 02:37:13;;;;;;;5.50;4.25;;;;;14.30;101337.00;;;;5056153;28;20234;-80
2022/04/19 02:39:40;;;;;;;4.18;3.40;;;;;14.30;101340.00;;;;5058138;28;20557;-81
2022/04/19 02:42:08;;;;;;;4.70;3.53;;;;;14.20;101332.00;;;;5063768;28;20199;-80
2022/04/19 02:44:37;;;;;;;5.10;4.10;;;;;14.20;101329.00;;;;5070620;28;20712;-81
2022/04/19 02:47:06;;;;;;;5.35;4.22;;;;;14.20;101329.00;;;;5056974;28;20196;-80
2022/04/19 02:49:33;;;;;;;5.00;3.70;;;;;14.10;101328.00;;;;5066455;28;20195;-81
2022/04/19 02:52:00;;;;;;;5.28;3.85;;;;;14.10;101331.00;;;;5064056;28;20249;-80
2022/04/19 02:54:28;;;;;;;5.25;4.32;;;;;14.10;101325.00;;;;5058361;28;20256;-80
2022/04/19 02:56:55;;;;;;;9.82;4.07;;;;;14.10;101326.00;;;;5063735;28;20194;-80
2022/04/19 02:59:22;;;;;;;6.07;4.15;;;;;14.10;101324.00;;;;5068466;28;20187;-80
2022/04/19 03:01:49;;;;;;;4.78;4.30;;;;;14.00;101324.00;;;;5066213;28;20245;-81
2022/04/19 03:04:20;;;;;;;4.95;4.32;;;;;14.00;101321.00;;;;5054691;28;20317;-80
2022/04/19 03:06:47;;;;;;;4.80;4.22;;;;;14.00;101325.00;;;;5057216;28;20294;-80
2022/04/19 03:09:14;;;;;;;4.68;4.03;;;;;13.90;101323.00;;;;5060670;28;20195;-80
2022/04/19 03:11:42;;;;;;;5.45;4.07;;;;;13.90;101321.00;;;;5059903;28;20195;-80
2022/04/19 03:14:10;;;;;;;4.82;3.78;;;;;13.90;101319.00;;;;5052490;28;20211;-80
2022/04/19 03:16:37;;;;;;;5.13;4.45;;;;;13.90;101317.00;;;;5055042;28;20199;-80
2022/04/19 03:19:04;;;;;;;5.60;4.13;;;;;13.90;101324.00;;;;5053811;28;20212;-80
2022/04/19 03:21:33;;;;;;;4.93;3.83;;;;;13.80;101323.00;;;;5068483;28;20211;-80
2022/04/19 03:29:29;;;;;;;4.05;3.53;;;;;13.70;101324.00;;;;5055818;28;20265;-80
2022/04/19 03:31:57;;;;;;;5.13;4.05;;;;;13.70;101324.00;;;;5060461;28;20202;-80
2022/04/19 03:34:24;;;;;;;8.93;4.72;;;;;13.70;101323.00;;;;5066402;28;20661;-80
2022/04/19 03:36:53;;;;;;;5.13;4.38;;;;;13.60;101323.00;;;;5061829;28;20712;-80
2022/04/19 03:39:20;;;;;;;6.75;4.32;;;;;13.60;101320.00;;;;5058253;28;20317;-81
2022/04/19 03:41:47;;;;;;;5.72;4.50;;;;;13.60;101317.00;;;;5063303;28;20260;-80
2022/04/19 03:44:15;;;;;;;4.82;4.30;;;;;13.60;101313.00;;;;5064561;28;20229;-80
2022/04/19 03:49:24;;;;;;;5.70;4.43;;;;;13.50;101311.00;;;;5060121;28;20762;-80
2022/04/19 03:51:52;;;;;;;5.40;4.53;;;;;13.50;101310.00;;;;5057690;28;20203;-80
2022/04/19 03:54:19;;;;;;;6.07;4.50;;;;;13.50;101312.00;;;;5063405;28;20198;-80
2022/04/19 03:56:47;;;;;;;5.32;4.05;;;;;13.50;101322.00;;;;5064609;28;20206;-80
2022/04/19 03:59:14;;;;;;;5.88;4.43;;;;;13.40;101313.00;;;;5064060;28;20199;-80
2022/04/19 04:01:42;;;;;;;5.05;4.38;;;;;13.40;101316.00;;;;5068234;28;20695;-80
2022/04/19 04:04:10;;;;;;;5.25;4.03;;;;;13.40;101315.00;;;;5065258;28;20226;-80
2022/04/19 04:06:38;;;;;;;6.03;5.00;;;;;13.40;101316.00;;;;5056676;28;20679;-81
2022/04/19 04:09:07;;;;;;;5.88;4.40;;;;;13.30;101319.00;;;;5066966;28;20211;-80
2022/04/19 04:11:34;;;;;;;6.22;4.82;;;;;13.30;101319.00;;;;5067861;28;20199;-80
2022/04/19 04:14:02;;;;;;;7.07;5.65;;;;;13.30;101313.00;;;;5054079;28;20195;-81
2022/04/19 04:16:29;;;;;;;6.82;4.78;;;;;13.30;101310.00;;;;5058273;28;20218;-80
2022/04/19 04:18:56;;;;;;;4.90;4.20;;;;;13.20;101313.00;;;;5057996;28;20264;-80
2022/04/19 04:21:24;;;;;;;7.07;4.90;;;;;13.20;101312.00;;;;5067500;28;21762;-80
2022/04/19 04:23:51;;;;;;;7.03;5.13;;;;;13.20;101312.00;;;;5061897;28;20223;-80
2022/04/19 04:26:19;;;;;;;7.00;4.95;;;;;13.20;101321.00;;;;5057865;28;20199;-80
2022/04/19 04:28:47;;;;;;;6.35;4.57;;;;;13.10;101318.00;;;;5054442;28;20199;-80
2022/04/19 04:31:14;;;;;;;6.43;5.22;;;;;13.10;101320.00;;;;5050728;28;20215;-80
2022/04/19 04:33:42;;;;;;;6.18;4.97;;;;;13.10;101323.00;;;;5060342;28;20371;-80
2022/04/19 04:36:11;;;;;;;5.97;4.88;;;;;13.10;101325.00;;;;5053868;28;20685;-80
2022/04/19 04:38:39;;;;;;;8.13;5.07;;;;;13.10;101330.00;;;;5049315;28;20412;-80
2022/04/19 04:41:06;;;;;;;8.10;5.57;;;;;13.10;101331.00;;;;5060444;28;20210;-80
2022/04/19 04:43:34;;;;;;;6.25;5.07;;;;;13.00;101334.00;;;;5064563;28;20226;-80
2022/04/19 04:51:31;;;;;;;7.88;4.95;;;;;13.00;101333.00;;;;5054690;28;20211;-81
2022/04/19 04:53:58;;;;;;;7.40;5.15;;;;;13.00;101333.00;;;;5052184;28;20230;-80
2022/04/19 04:56:26;;;;;;;7.03;5.05;;;;;13.00;101332.00;;;;5054373;28;20195;-79
2022/04/19 04:58:55;;;;;;;7.25;5.57;;;;;13.00;101328.00;;;;5059053;28;20245;-80
2022/04/19 05:01:22;;;;;;;6.20;4.85;;;;;13.00;101334.00;;;;5059761;28;20198;-81
2022/04/19 05:03:49;;;;;;;6.85;4.97;;;;;13.00;101345.00;;;;5067832;28;20233;-80
2022/04/19 05:06:17;;;;;;;7.50;5.28;;;;;13.00;101338.00;;;;5057132;28;20208;-80
2022/04/19 05:08:44;;;;;;;8.73;5.60;;;;;13.00;101345.00;;;;5059091;28;20218;-80
2022/04/19 05:11:11;;;;;;;5.85;4.55;;;;;13.10;101337.00;;;;5056608;28;20981;-80
2022/04/19 05:13:38;;;;;;;7.32;5.30;;;;;13.10;101341.00;;;;5060255;28;20629;-80
2022/04/19 05:16:08;;;;;;;8.45;5.57;;;;;13.10;101342.00;;;;5063901;28;20210;-81
2022/04/19 05:18:35;;;;;;;6.78;4.90;;;;;13.20;101340.00;;;;5064172;28;20665;-81
2022/04/19 05:21:02;;;;;;;8.40;5.55;;;;;13.20;101340.00;;;;5060081;28;20199;-80
2022/04/19 05:23:30;;;;;;;5.93;4.68;;;;;13.20;101344.00;;;;5065291;28;20302;-81
2022/04/19 05:25:57;;;;;;;7.10;5.07;;;;;13.30;101342.00;;;;5054358;28;20238;-81
2022/04/19 05:28:24;;;;;;;5.65;4.43;;;;;13.30;101344.00;;;;5063028;28;20195;-80
2022/04/19 05:30:52;;;;;;;6.13;4.75;;;;;13.40;101348.00;;;;5057560;28;20713;-80
2022/04/19 05:33:20;;;;;;;7.97;4.72;;;;;13.40;101343.00;;;;5059631;28;20195;-81
2022/04/19 05:35:47;;;;;;;8.35;5.25;;;;;13.50;101338.00;;;;5066895;28;20226;-80
2022/04/19 05:38:15;;;;;;;4.63;3.92;;;;;13.60;101349.00;;;;5068490;28;20203;-80
2022/04/19 05:40:42;;;;;;;6.80;4.97;;;;;13.70;101349.00;;;;5059455;28;20200;-80
2022/04/19 05:43:09;;;;;;;7.00;4.53;;;;;13.80;101350.00;;;;5067916;28;20580;-81
2022/04/19 05:45:39;;;;;;;6.43;5.30;;;;;13.80;101347.00;;;;5070137;28;20199;-80
2022/04/19 05:48:07;;;;;;;8.23;5.10;;;;;13.90;101341.00;;;;5063177;28;20199;-80
2022/04/19 05:50:35;;;;;;;6.85;4.47;;;;;13.90;101343.00;;;;5065803;28;20201;-80
2022/04/19 05:53:02;;;;;;;7.55;4.82;;;;;14.00;101348.00;;;;5066612;28;20203;-79
2022/04/19 05:55:30;;;;;;;7.47;4.53;;;;;14.10;101343.00;;;;5069300;28;20210;-78
2022/04/19 05:57:58;;;;;;;6.13;4.55;;;;;14.20;101349.00;;;;5067576;28;20665;-77
2022/04/19 06:00:25;;;;;;;9.45;4.97;;;;;14.30;101341.00;;;;5064485;28;20203;-79
2022/04/19 06:05:38;;;;;;;5.65;4.15;;;;;14.50;101357.00;;;;5064961;28;21013;-78
2022/04/19 06:08:06;;;;;;;6.43;4.50;;;;;14.60;101352.00;;;;5072719;28;20210;-78
2022/04/19 06:10:33;;;;;;;6.55;4.57;;;;;14.70;101349.00;;;;5071430;28;20232;-78
2022/04/19 06:13:00;;;;;;;6.82;4.20;;;;;14.80;101366.00;;;;5070117;28;20195;-78
2022/04/19 06:15:27;;;;;;;6.38;4.63;;;;;15.00;101366.00;;;;5071209;28;20191;-77
2022/04/19 06:17:55;;;;;;;6.40;4.57;;;;;15.10;101365.00;;;;5070404;28;20572;-78
2022/04/19 06:20:22;;;;;;;6.25;4.20;;;;;15.20;101369.00;;;;5070619;28;20201;-78
2022/04/19 06:22:51;;;;;;;5.38;3.83;;;;;15.40;101367.00;;;;5069023;28;20195;-78
2022/04/19 06:25:18;;;;;;;6.72;4.55;;;;;15.50;101368.00;;;;5051669;28;20293;-77
2022/04/19 06:27:46;;;;;;;6.32;4.15;;;;;15.70;101366.00;;;;5067469;28;20199;-77
2022/04/19 06:30:14;;;;;;;5.47;4.38;;;;;15.80;101366.00;;;;5054166;28;21156;-77
2022/04/19 06:32:42;;;;;;;6.63;4.75;;;;;15.90;101362.00;;;;5069651;28;20591;-78
2022/04/19 06:35:09;;;;;;;6.55;4.47;;;;;16.10;101367.00;;;;5071416;28;20195;-77
2022/04/19 06:37:37;;;;;;;5.57;3.90;;;;;16.20;101362.00;;;;5067891;28;20728;-78
2022/04/19 06:40:09;;;;;;;6.03;4.20;;;;;16.30;101362.00;;;;5061747;28;20604;-78
2022/04/19 06:42:37;;;;;;;6.43;3.70;;;;;16.50;101373.00;;;;5070993;28;20230;-77
2022/04/19 06:45:04;;;;;;;7.07;4.45;;;;;16.60;101377.00;;;;5067747;28;20223;-78
2022/04/19 06:47:34;;;;;;;6.20;4.22;;;;;16.80;101375.00;;;;5070823;28;20248;-78
2022/04/19 06:50:02;;;;;;;5.38;3.55;;;;;16.90;101375.00;;;;5059414;28;20270;-77
2022/04/19 06:52:30;;;;;;;5.43;3.30;;;;;17.10;101370.00;;;;5060872;28;20591;-78
2022/04/19 06:54:57;;;;;;;5.00;3.65;;;;;17.20;101375.00;;;;5058025;28;20195;-77
2022/04/19 06:57:26;;;;;;;5.50;3.63;;;;;17.40;101378.00;;;;5051639;28;20310;-78
2022/04/19 06:59:53;;;;;;;4.63;3.28;;;;;17.50;101381.00;;;;5061830;28;20559;-78
2022/04/19 07:02:20;;;;;;;5.22;3.30;;;;;17.70;101380.00;;;;5067206;28;20225;-79
2022/04/19 07:04:47;;;;;;;4.68;3.15;;;;;17.80;101382.00;;;;5064568;28;20226;-78
2022/04/19 07:07:15;;;;;;;5.78;3.47;;;;;17.90;101377.00;;;;5059317;28;20246;-77
2022/04/19 07:09:42;;;;;;;5.05;3.30;;;;;18.10;101385.00;;;;5054868;28;20199;-77
2022/04/19 07:12:10;;;;;;;5.10;3.47;;;;;18.20;101384.00;;;;5052639;28;20196;-77
2022/04/19 07:14:38;;;;;;;8.13;4.10;;;;;18.40;101389.00;;;;5051472;28;20196;-77
2022/04/19 07:17:06;;;;;;;6.30;3.45;;;;;18.50;101386.00;;;;5050308;28;20230;-77
2022/04/19 07:27:44;;;;;;;4.53;3.03;;;;;19.10;101390.00;;;;5069295;28;20286;-77
2022/04/19 07:30:13;;;;;;;6.32;3.47;;;;;19.20;101394.00;;;;5067490;28;20211;-77
2022/04/19 07:32:40;;;;;;;4.97;3.83;;;;;19.40;101392.00;;;;5064801;28;20235;-77
2022/04/19 07:35:08;;;;;;;5.03;3.75;;;;;19.50;101396.00;;;;5068439;28;20199;-77
2022/04/19 07:37:35;;;;;;;5.30;3.67;;;;;19.60;101409.00;;;;5069554;28;20242;-77
2022/04/19 07:40:04;;;;;;;4.82;3.30;;;;;19.80;101412.00;;;;5066675;28;20287;-77
2022/04/19 07:42:31;;;;;;;5.63;3.58;;;;;19.90;101401.00;;;;5056602;28;20237;-77
2022/04/19 07:44:58;;;;;;;5.53;3.92;;;;;20.00;101409.00;;;;5061414;28;20211;-77
2022/04/19 07:47:27;;;;;;;7.85;3.53;;;;;20.10;101415.00;;;;5066919;28;20842;-77
2022/04/19 07:49:57;;;;;;;6.03;3.85;;;;;20.20;101415.00;;;;5070081;28;20554;-77
2022/04/19 07:52:24;;;;;;;5.97;3.92;;;;;20.40;101413.00;;;;5051502;28;20275;-77
2022/04/19 07:54:52;;;;;;;5.38;3.58;;;;;20.50;101409.00;;;;5061407;28;20195;-76
2022/04/19 07:57:20;;;;;;;4.50;3.55;;;;;20.60;101407.00;;;;5070219;28;20203;-77
2022/04/19 07:59:47;;;;;;;5.03;3.17;;;;;20.70;101411.00;;;;5050384;28;20696;-78
2022/04/19 08:02:15;;;;;;;5.80;3.58;;;;;20.80;101413.00;;;;5050021;28;20203;-78
2022/04/19 08:04:43;;;;;;;5.13;3.53;;;;;20.90;101414.00;;;;5054899;28;20227;-79
2022/04/19 08:07:10;;;;;;;7.05;4.20;;;;;21.00;101411.00;;;;5063542;28;20206;-80
2022/04/19 08:09:38;;;;;;;4.25;3.22;;;;;21.10;101406.00;;;;5070327;28;20190;-79
2022/04/19 08:12:08;;;;;;;4.47;3.60;;;;;21.20;101408.00;;;;5058875;28;20191;-80
2022/04/19 08:14:35;;;;;;;4.10;3.00;;;;;21.30;101406.00;;;;5051580;28;20287;-80
2022/04/19 08:17:03;;;;;;;5.07;3.75;;;;;21.40;101404.00;;;;5053839;28;20187;-80
2022/04/19 08:19:30;;;;;;;5.55;3.63;;;;;21.50;101403.00;;;;5055728;28;20195;-79
2022/04/19 08:21:58;;;;;;;4.65;3.35;;;;;21.60;101405.00;;;;5054505;28;20195;-82
2022/04/19 08:24:26;;;;;;;4.63;3.15;;;;;21.70;101401.00;;;;5049672;28;20253;-82
2022/04/19 08:26:53;;;;;;;3.47;2.97;;;;;21.80;101406.00;;;;5051045;28;20541;-80
2022/04/19 08:29:21;;;;;;;6.22;2.95;;;;;21.90;101404.00;;;;5049251;28;20196;-80
2022/04/19 08:31:48;;;;;;;5.03;3.17;;;;;22.00;101400.00;;;;5060625;28;20242;-81
2022/04/19 08:34:16;;;;;;;6.70;3.47;;;;;22.10;101400.00;;;;5065940;28;20183;-81
2022/04/19 08:36:43;;;;;;;4.65;3.00;;;;;22.20;101408.00;;;;5062708;28;20235;-81
2022/04/19 08:39:12;;;;;;;4.95;2.58;;;;;22.20;101413.00;;;;5063148;28;20233;-81
2022/04/19 08:41:40;;;;;;;4.18;2.53;;;;;22.30;101400.00;;;;5057330;28;20319;-84
2022/04/19 08:44:08;;;;;;;3.63;2.53;;;;;22.40;101409.00;;;;5052499;28;20227;-82
2022/04/19 08:46:39;;;;;;;4.90;2.45;;;;;22.40;101400.00;;;;5061833;28;20747;-81
2022/04/19 08:49:07;;;;;;;4.35;2.88;;;;;22.50;101408.00;;;;5064153;28;20226;-79
2022/04/19 08:51:37;;;;;;;6.30;3.00;;;;;22.60;101404.00;;;;5059011;28;20209;-78
2022/04/19 08:59:38;;;;;;;4.18;2.75;;;;;22.80;101408.00;;;;5065808;28;20237;-77
2022/04/19 09:02:07;;;;;;;5.47;3.25;;;;;22.90;101404.00;;;;5065699;28;20503;-80
2022/04/19 09:04:35;;;;;;;3.45;2.45;;;;;22.90;101408.00;;;;5059840;28;20309;-79
2022/04/19 09:07:04;;;;;;;3.83;2.63;;;;;23.00;101408.00;;;;5060085;28;20206;-79
2022/04/19 09:09:34;;;;;;;4.43;2.90;;;;;23.10;101409.00;;;;5063451;28;20254;-78
2022/04/19 09:12:10;;;;;;;4.65;2.58;;;;;23.10;101405.00;;;;5054261;28;20203;-78
2022/04/19 09:14:37;;;;;;;5.05;2.65;;;;;23.20;101408.00;;;;5050828;28;20206;-78
2022/04/19 09:17:06;;;;;;;3.90;2.50;;;;;23.20;101402.00;;;;5060921;28;20290;-78
2022/04/19 09:19:34;;;;;;;4.15;2.35;;;;;23.30;101404.00;;;;5065849;28;20195;-78
2022/04/19 09:22:04;;;;;;;5.45;2.22;;;;;23.30;101406.00;;;;5060859;28;20203;-78
2022/04/19 09:24:32;;;;;;;4.40;2.58;;;;;23.40;101405.00;;;;5062450;28;20226;-78
2022/04/19 09:26:59;;;;;;;4.68;2.25;;;;;23.50;101397.00;;;;5055023;28;20196;-78
2022/04/19 09:29:29;;;;;;;2.83;2.00;;;;;23.60;101404.00;;;;5053422;28;20191;-78
2022/04/19 09:31:58;;;;;;;4.57;2.25;;;;;23.70;101399.00;;;;5052813;28;20524;-80
2022/04/19 09:34:28;;;;;;;5.25;2.20;;;;;23.70;101404.00;;;;5051467;28;20818;-79
2022/04/19 09:37:07;;;;;;;3.92;2.63;;;;;23.80;101397.00;;;;5067012;28;20295;-79
2022/04/19 09:39:36;;;;;;;3.42;1.95;;;;;23.90;101396.00;;;;5062348;28;20207;-79
2022/04/19 09:42:05;;;;;;;4.90;2.88;;;;;24.00;101400.00;;;;5060880;28;20250;-79
2022/04/19 09:44:39;;;;;;;6.05;2.95;;;;;24.00;101398.00;;;;5054812;28;20794;-79
2022/04/19 09:47:07;;;;;;;3.33;2.47;;;;;24.10;101394.00;;;;5053735;28;20206;-79
2022/04/19 09:49:45;;;;;;;4.68;3.38;;;;;24.10;101388.00;;;;5066368;28;20203;-79
2022/04/19 09:52:33;;;;;;;4.78;3.25;;;;;24.20;101389.00;;;;5052044;28;20199;-80
2022/04/19 09:55:04;;;;;;;7.07;2.72;;;;;24.30;101394.00;;;;5052229;28;20203;-79
2022/04/19 09:57:34;;;;;;;3.85;2.38;;;;;24.40;101390.00;;;;5073034;28;20202;-79
2022/04/19 10:00:06;;;;;;;5.13;3.35;;;;;24.40;101384.00;;;;5067619;28;20290;-78
2022/04/19 10:08:19;;;;;;;4.55;2.90;;;;;24.70;101391.00;;;;5050778;28;20257;-80
2022/04/19 10:10:47;;;;;;;4.43;2.80;;;;;24.80;101380.00;;;;5066430;28;20203;-79
2022/04/19 10:13:17;;;;;;;6.82;3.25;;;;;24.90;101381.00;;;;5056423;28;20223;-79
2022/04/19 10:15:46;;;;;;;4.65;2.75;;;;;24.90;101392.00;;;;5054555;28;20206;-79
2022/04/19 10:18:13;;;;;;;5.50;2.97;;;;;25.00;101395.00;;;;5057694;28;20612;-79
2022/04/19 10:20:46;;;;;;;3.67;2.65;;;;;25.10;101380.00;;;;5056528;28;20203;-79
2022/04/19 10:23:15;;;;;;;3.95;2.78;;;;;25.20;101374.00;;;;5061844;28;20199;-79
2022/04/19 10:25:44;;;;;;;11.38;2.67;;;;;25.30;101385.00;;;;5062205;28;20651;-80
2022/04/19 10:28:13;;;;;;;3.45;2.78;;;;;25.30;101384.00;;;;5059555;28;20591;-79
2022/04/19 10:30:51;;;;;;;5.15;2.88;;;;;25.40;101385.00;;;;5055372;28;20216;-80
2022/04/19 10:33:40;;;;;;;4.85;2.97;;;;;25.30;101372.00;;;;5056408;28;20226;-79
2022/04/19 10:36:12;;;;;;;5.30;2.95;;;;;25.50;101376.00;;;;5073928;28;20230;-79
2022/04/19 10:38:39;;;;;;;5.28;2.72;;;;;25.60;101377.00;;;;5057758;28;20737;-80
2022/04/19 10:41:06;;;;;;;4.90;3.55;;;;;25.60;101372.00;;;;5067122;28;20191;-80
2022/04/19 10:43:34;;;;;;;5.63;2.83;;;;;25.60;101381.00;;;;5063764;28;20200;-79
2022/04/19 10:46:22;;;;;;;5.25;3.45;;;;;25.50;101374.00;;;;5062206;28;20285;-80
2022/04/19 10:49:22;;;;;;;4.43;3.03;;;;;25.60;101386.00;;;;5048949;28;20203;-79
2022/04/19 10:51:50;;;;;;;4.18;2.60;;;;;25.70;101373.00;;;;5067215;28;20227;-79
2022/04/19 10:54:37;;;;;;;4.88;3.05;;;;;25.80;101379.00;;;;5067488;28;20234;-80
2022/04/19 11:00:01;;;;;;;3.38;2.40;;;;;26.00;101376.00;;;;5057841;28;20199;-79
2022/04/19 11:02:39;;;;;;;4.93;2.65;;;;;26.00;101373.00;;;;5051183;28;20203;-79
2022/04/19 11:05:41;;;;;;;6.47;2.92;;;;;26.00;101373.00;;;;5065526;28;20227;-80
2022/04/19 11:08:38;;;;;;;4.35;3.10;;;;;26.00;101365.00;;;;5050531;28;20731;-79
2022/04/19 11:11:23;;;;;;;4.22;2.67;;;;;26.10;101358.00;;;;5001296;28;20214;-77
2022/04/19 11:14:17;;;;;;;4.70;3.08;;;;;26.10;101373.00;;;;5051519;28;20277;-77
2022/04/19 11:16:44;;;;;;;4.30;2.70;;;;;26.30;101373.00;;;;5052880;28;20203;-79
2022/04/19 11:19:18;;;;;;;5.53;2.95;;;;;26.20;101370.00;;;;5056624;28;20195;-78
2022/04/19 11:21:54;;;;;;;4.35;2.22;;;;;26.20;101361.00;;;;5058431;28;20231;-80
2022/04/19 11:24:59;;;;;;;4.82;2.50;;;;;26.20;101362.00;;;;5052490;28;20191;-80
2022/04/19 11:27:57;;;;;;;5.68;2.35;;;;;26.20;101358.00;;;;5056087;28;20213;-79
2022/04/19 11:30:25;;;;;;;3.70;2.58;;;;;26.30;101359.00;;;;5053989;28;20689;-79
2022/04/19 11:32:55;;;;;;;4.10;2.53;;;;;26.30;101351.00;;;;5058944;28;20210;-79
2022/04/19 11:35:24;;;;;;;3.80;2.53;;;;;26.40;101352.00;;;;5064914;28;20661;-78
2022/04/19 11:37:51;;;;;;;3.75;2.50;;;;;26.50;101349.00;;;;5065963;28;20616;-78
2022/04/19 11:48:54;;;;;;;4.18;3.05;;;;;26.60;101349.00;;;;5000848;28;20239;-77
2022/04/19 11:51:23;;;;;;;4.75;3.15;;;;;26.60;101349.00;;;;5004873;28;20197;-77
2022/04/19 11:53:50;;;;;;;5.55;2.85;;;;;26.60;101342.00;;;;5034397;28;20229;-77
2022/04/19 11:56:21;;;;;;;5.80;3.20;;;;;26.70;101358.00;;;;5065947;28;20292;-77
2022/04/19 11:58:52;;;;;;;4.75;2.90;;;;;26.80;101355.00;;;;5061665;28;20248;-77
2022/04/19 12:01:20;;;;;;;4.70;3.17;;;;;26.80;101339.00;;;;5058301;28;20225;-77
2022/04/19 12:03:47;;;;;;;6.32;3.55;;;;;26.90;101342.00;;;;5050026;28;20610;-78
2022/04/19 12:06:16;;;;;;;4.85;2.85;;;;;26.90;101337.00;;;;5062967;28;20226;-78
2022/04/19 12:08:46;;;;;;;4.85;2.92;;;;;26.90;101332.00;;;;5049474;28;20212;-77
2022/04/19 12:11:16;;;;;;;5.15;2.90;;;;;26.90;101334.00;;;;5050936;28;20200;-78
2022/04/19 12:13:46;;;;;;;5.75;2.95;;;;;27.00;101336.00;;;;5050248;28;21120;-77
2022/04/19 12:16:29;;;;;;;4.55;2.85;;;;;27.00;101333.00;;;;5057765;28;20207;-77
2022/04/19 12:18:58;;;;;;;4.47;3.30;;;;;27.10;101334.00;;;;5064866;28;20187;-78
2022/04/19 12:21:38;;;;;;;3.83;2.55;;;;;27.10;101331.00;;;;5055300;28;20285;-77
2022/04/19 12:24:08;;;;;;;5.57;3.70;;;;;27.20;101332.00;;;;5060834;28;20221;-78
2022/04/19 12:26:35;;;;;;;7.30;3.35;;;;;27.30;101335.00;;;;5052299;28;20277;-77
2022/04/19 12:29:14;;;;;;;6.75;3.83;;;;;27.30;101330.00;;;;5067641;28;20198;-77
2022/04/19 12:31:44;;;;;;;5.93;3.40;;;;;27.40;101324.00;;;;5063962;28;20638;-77
2022/04/19 12:34:12;;;;;;;5.68;3.55;;;;;27.50;101331.00;;;;5066072;28;20191;-77
2022/04/19 12:36:47;;;;;;;4.45;3.08;;;;;27.50;101329.00;;;;5057772;28;20231;-77
2022/04/19 12:39:18;;;;;;;5.75;2.95;;;;;27.60;101342.00;;;;5061563;28;20566;-78
2022/04/19 12:41:46;;;;;;;4.57;3.05;;;;;27.70;101331.00;;;;5066461;28;20207;-78
2022/04/19 12:44:15;;;;;;;5.60;3.58;;;;;27.70;101328.00;;;;5068402;28;20202;-77
2022/04/19 12:46:44;;;;;;;5.25;3.30;;;;;27.70;101324.00;;;;5062674;28;20226;-77
2022/04/19 12:49:22;;;;;;;4.15;3.10;;;;;27.60;101320.00;;;;5057896;28;20206;-77
2022/04/19 12:52:00;;;;;;;3.83;2.97;;;;;27.70;101324.00;;;;5059016;28;20218;-77
2022/04/19 12:54:30;;;;;;;4.90;3.25;;;;;27.80;101317.00;;;;5051206;28;20665;-77
2022/04/19 12:57:00;;;;;;;3.33;2.60;;;;;27.90;101323.00;;;;5067145;28;20200;-77
2022/04/19 12:59:28;;;;;;;4.60;2.88;;;;;27.90;101320.00;;;;5065545;28;20298;-77
2022/04/19 13:01:55;;;;;;;3.45;2.40;;;;;27.90;101314.00;;;;5052368;28;20206;-77
2022/04/19 13:04:22;;;;;;;5.05;2.95;;;;;27.90;101307.00;;;;5058349;28;20190;-79
2022/04/19 13:12:22;;;;;;;3.97;2.95;;;;;28.00;101304.00;;;;5065763;28;20348;-79
2022/04/19 13:14:52;;;;;;;4.18;3.17;;;;;28.10;101306.00;;;;5063000;28;20230;-79